Carnival Splendor — 3EUS — position and weather

sailwx.info

Track history (hours):
 
Tides and Currents Weather Stations Pressure Air Temp Water Temp Dewpoint Dewpoint Depression Visibility Wind Speed Wind Dir Waves Ship Positions

Carnival Splendor

Last reported at 2018-Jun-21 10:00 UTC. Time now 2018-Jun-22 07:39 UTC.
Position N 21°24' W 107°36'.

Length 289 m; draft 8.4 m.

Type: Passenger vessel. MMSI: 372808000.

Wind from 250 at 15 knots

Barometer 1010.0 mb
Air temperature 23.0 ° C
Visibility: greater than 10.8 NM
Dewpoint 18.3 ° C
Water temperature 27.0 ° C

Date/timePositionNaut miles runAvg speedWind from/ knotsBaromVisibWave heightAir tempDewpointWater temp
2018-Jun-21 10:00N 21°24' W 107°36'105 4.6 250 / 151010.010.8 23.018.327.0
2018-Jun-20 11:00N 20°30' W 106°00'158 6.6 210 / 151011.0 25.017.022.0
2018-Jun-19 11:00N 23°00' W 106°54'8917.7 160 / 121010.0 26.023.123.0
2018-Jun-19 06:00N 22°54' W 108°30'149 8.3 200 / 101011.010.8 23.021.522.0
2018-Jun-18 12:00N 23°36' W 111°06'48420.2 330 / 181012.0 17.015.317.0
2018-Jun-17 12:00N 30°00' W 116°36'12120.2 300 / 141013.0 16.0 5.715.0
2018-Jun-17 06:00N 31°54' W 117°24'2128.2 1012.010.8 16.010.415.0
2018-Jun-17 05:15N 32°12' W 117°36'920.2
2018-Jun-17 04:49N 32°21' W 117°40'620.5
2018-Jun-17 04:30N 32°27' W 117°42'1020.2
2018-Jun-17 04:01N 32°36' W 117°46'1020.4
2018-Jun-17 03:30N 32°46' W 117°49'1020.6
2018-Jun-17 03:00N 32°56' W 117°53'1020.6
2018-Jun-17 02:31N 33°05' W 117°58'1020.7
2018-Jun-17 02:00N 33°14' W 118°03'1019.3
2018-Jun-17 01:30N 33°23' W 118°08'714.3
2018-Jun-17 01:00N 33°30' W 118°11'511.0
2018-Jun-17 00:30N 33°35' W 118°13'510.7
2018-Jun-17 00:00N 33°40' W 118°12'4 8.7
2018-Jun-16 23:30N 33°45' W 118°11'0 0.9
2018-Jun-16 22:58N 33°45' W 118°11'0 0.0
2018-Jun-16 22:25N 33°45' W 118°11'0 0.0
2018-Jun-16 21:58N 33°45' W 118°11'0 0.0
2018-Jun-16 21:28N 33°45' W 118°11'0 0.0
2018-Jun-16 21:00N 33°45' W 118°11'0 0.0
2018-Jun-16 20:30N 33°45' W 118°11'0 0.0
2018-Jun-16 20:00N 33°45' W 118°11'0 0.0
2018-Jun-16 19:30N 33°45' W 118°11'0 0.0
2018-Jun-16 19:00N 33°45' W 118°11'0 0.0
2018-Jun-16 18:29N 33°45' W 118°11'0 0.0
2018-Jun-16 17:59N 33°45' W 118°11'0 0.0
2018-Jun-16 17:29N 33°45' W 118°11'0 0.0
2018-Jun-16 16:59N 33°45' W 118°11'0 0.0
2018-Jun-16 16:25N 33°45' W 118°11'0 0.0
2018-Jun-16 15:58N 33°45' W 118°11'0 0.0
2018-Jun-16 15:28N 33°45' W 118°11'0 0.0
2018-Jun-16 14:58N 33°45' W 118°11'0 0.0
2018-Jun-16 14:28N 33°45' W 118°11'0 0.0
2018-Jun-16 14:00N 33°45' W 118°11'0 0.5
2018-Jun-16 13:30N 33°45' W 118°11'4 8.2
2018-Jun-16 13:00N 33°41' W 118°11'510.7
2018-Jun-16 12:30N 33°36' W 118°09'712.8
2018-Jun-16 12:00N 33°29' W 118°07'613.0
2018-Jun-16 11:30N 33°23' W 118°04'612.6
2018-Jun-16 11:00N 33°17' W 118°01'715.2
2018-Jun-16 10:30N 33°10' W 117°58'715.0
2018-Jun-16 10:00N 33°04' W 117°54'715.0
2018-Jun-16 09:31N 32°57' W 117°50'714.8
2018-Jun-16 09:01N 32°50' W 117°48'815.2
2018-Jun-16 08:31N 32°42' W 117°47'815.1
2018-Jun-16 08:00N 32°35' W 117°45'815.2
2018-Jun-16 07:30N 32°28' W 117°43'714.3
2018-Jun-16 07:01N 32°21' W 117°40'611.8
2018-Jun-16 06:29N 32°15' W 117°37'611.8
2018-Jun-16 06:00N 32°10' W 117°35'612.3
2018-Jun-16 05:30N 32°04' W 117°32'814.8
2018-Jun-16 04:56N 31°57' W 117°27'712.4
2018-Jun-16 04:21N 31°53' W 117°20'411.8
2018-Jun-16 04:00N 31°53' W 117°15'1411.4
2018-Jun-16 02:45N 31°53' W 116°58'7 0.5
2018-Jun-15 11:31N 31°54' W 117°06'717.4
2018-Jun-15 11:07N 31°54' W 117°15'112.2
2018-Jun-15 11:00N 31°54' W 117°16'912.2
2018-Jun-15 10:18N 31°55' W 117°26'311.9
2018-Jun-15 10:00N 31°55' W 117°30'612.0
2018-Jun-15 09:30N 31°55' W 117°38'611.9
2018-Jun-15 09:00N 31°55' W 117°45'611.3
2018-Jun-15 08:30N 31°56' W 117°51'510.9
2018-Jun-15 08:00N 31°56' W 117°57'610.1
2018-Jun-15 07:27N 32°01' W 118°01'511.3
2018-Jun-15 07:00N 32°06' W 117°59'611.3
2018-Jun-15 06:30N 32°11' W 117°57'611.5
2018-Jun-15 06:00N 32°16' W 117°55'611.7
2018-Jun-15 05:28N 32°22' W 117°52'710.8
2018-Jun-15 04:50N 32°24' W 117°44'410.9
2018-Jun-15 04:30N 32°25' W 117°40'610.9
2018-Jun-15 03:57N 32°26' W 117°33'910.8
2018-Jun-15 03:09N 32°31' W 117°24'211.2
2018-Jun-15 03:00N 32°32' W 117°23'611.0
2018-Jun-15 02:30N 32°35' W 117°17'5 9.1
2018-Jun-15 02:00N 32°38' W 117°13'5 9.7
2018-Jun-15 01:30N 32°43' W 117°13'2 1.6
2018-Jun-15 00:10N 32°43' W 117°10'0 0.0
2018-Jun-14 23:58N 32°43' W 117°10'0 0.0
2018-Jun-14 23:28N 32°43' W 117°10'0 0.0
2018-Jun-14 22:58N 32°43' W 117°10'0 0.0
2018-Jun-14 22:30N 32°43' W 117°10'0 0.0
2018-Jun-14 22:00N 32°43' W 117°10'0 0.0
2018-Jun-14 21:30N 32°43' W 117°10'0 0.0
2018-Jun-14 21:00N 32°43' W 117°10'0 0.0
2018-Jun-14 20:30N 32°43' W 117°10'0 0.0
2018-Jun-14 19:58N 32°43' W 117°10'0 0.0
2018-Jun-14 19:30N 32°43' W 117°10'0 0.0
2018-Jun-14 19:00N 32°43' W 117°10'0 0.0
2018-Jun-14 18:30N 32°43' W 117°10'0 0.0
2018-Jun-14 18:00N 32°43' W 117°10'0 0.0
2018-Jun-14 17:30N 32°43' W 117°10'0 0.0
2018-Jun-14 17:00N 32°43' W 117°10'0 0.0
2018-Jun-14 16:30N 32°43' W 117°10'0 0.0
2018-Jun-14 16:00N 32°43' W 117°10'0 0.0
2018-Jun-14 15:31N 32°43' W 117°10'0 0.0
2018-Jun-14 15:00N 32°43' W 117°10'0 0.0
2018-Jun-14 14:30N 32°43' W 117°10'0 0.0
2018-Jun-14 14:00N 32°43' W 117°10'0 0.0
2018-Jun-14 13:30N 32°43' W 117°10'0 0.0
2018-Jun-14 13:00N 32°43' W 117°10'1 2.3
2018-Jun-14 12:30N 32°43' W 117°12'4 8.5
2018-Jun-14 12:00N 32°39' W 117°13'5 9.3
2018-Jun-14 11:30N 32°35' W 117°17'611.7
2018-Jun-14 11:00N 32°32' W 117°23'714.9
2018-Jun-14 10:31N 32°28' W 117°30'815.1
2018-Jun-14 10:01N 32°24' W 117°37'714.8
2018-Jun-14 09:30N 32°18' W 117°43'815.7
2018-Jun-14 09:01N 32°12' W 117°48'816.0
2018-Jun-14 08:30N 32°05' W 117°54'816.0
2018-Jun-14 08:00N 31°59' W 117°60'815.5
2018-Jun-14 07:30N 31°52' W 118°03'815.5
2018-Jun-14 07:00N 31°44' W 118°04'1215.8
2018-Jun-14 06:15N 31°32' W 118°06'415.2
2018-Jun-14 06:00N 31°29' W 118°07'816.5
2018-Jun-14 05:30N 31°20' W 118°08'1216.8
2018-Jun-14 04:48N 31°09' W 118°10'516.5
2018-Jun-14 04:30N 31°04' W 118°11'816.5
2018-Jun-14 04:00N 30°56' W 118°12'1016.5
2018-Jun-14 03:25N 30°46' W 118°14'716.4
2018-Jun-14 03:00N 30°39' W 118°15'816.5
2018-Jun-14 02:30N 30°31' W 118°16'816.7
2018-Jun-14 02:00N 30°23' W 118°18'916.7
2018-Jun-14 01:29N 30°14' W 118°19'1916.0
2018-Jun-14 00:16N 29°58' W 118°08'519.4
2018-Jun-14 00:00N 29°55' W 118°02'1019.4
2018-Jun-13 23:30N 29°51' W 117°52'1219.1
2018-Jun-13 22:53N 29°45' W 117°40'719.3
2018-Jun-13 22:30N 29°42' W 117°33'1019.4
2018-Jun-13 21:59N 29°37' W 117°22'1019.6
2018-Jun-13 21:30N 29°33' W 117°13'1936.6
2018-Jun-13 21:00N 29°24' W 116°54'7102.8 300 / 141008.010.8 16.012.416.0
2018-Jun-13 20:55N 29°28' W 117°01'1319.4
2018-Jun-13 20:15N 29°22' W 116°48'3019.3
2018-Jun-13 18:43N 29°08' W 116°18'419.4
2018-Jun-13 18:30N 29°05' W 116°15'1119.9
2018-Jun-13 17:57N 28°54' W 116°11'1019.6
2018-Jun-13 17:26N 28°45' W 116°07'919.4
2018-Jun-13 16:57N 28°36' W 116°03'919.4
2018-Jun-13 16:30N 28°28' W 115°60'1019.5
2018-Jun-13 15:58N 28°18' W 115°56'1819.5
2018-Jun-13 15:01N 28°02' W 115°46'120.1
2018-Jun-13 15:00N 28°02' W 115°45'1019.9
2018-Jun-13 14:29N 27°53' W 115°38'2020.2
2018-Jun-13 13:31N 27°39' W 115°24'015.2
2018-Jun-13 13:29N 27°38' W 115°23'2919.4
2018-Jun-13 12:00N 27°18' W 115°00'1219.1 320 / 201008.0 16.014.316.0
2018-Jun-13 11:21N 27°07' W 114°54'1518.8
2018-Jun-13 10:33N 26°56' W 114°43'318.0
2018-Jun-13 10:25N 26°54' W 114°41'818.5
2018-Jun-13 09:57N 26°47' W 114°35'26118.7
2018-Jun-12 20:00N 23°42' W 111°12'121 5.1 270 / 131008.010.8 20.016.719.0
2018-Jun-11 20:00N 25°00' W 112°54'13817.4 310 / 151008.010.8 18.014.617.0
2018-Jun-11 12:02N 26°45' W 114°33'118.5
2018-Jun-11 12:00N 26°46' W 114°34'1217.6
2018-Jun-11 11:21N 26°55' W 114°42'617.5
2018-Jun-11 11:01N 26°59' W 114°46'  
Track history (hours):
 
Tides and Currents Weather Stations Pressure Air Temp Water Temp Dewpoint Dewpoint Depression Visibility Wind Speed Wind Dir Waves Ship Positions

Carnival Splendor

Last reported at 2018-Jun-21 10:00 UTC. Time now 2018-Jun-22 07:39 UTC.
Position N 21°24' W 107°36'.

Length 289 m; draft 8.4 m.

Type: Passenger vessel. MMSI: 372808000.

Wind from 250 at 15 knots

Barometer 1010.0 mb
Air temperature 23.0 ° C
Visibility: greater than 10.8 NM
Dewpoint 18.3 ° C
Water temperature 27.0 ° C

Date/timePositionNaut miles runAvg speedWind from/ knotsBaromVisibWave heightAir tempDewpointWater temp
2018-Jun-21 10:00N 21°24' W 107°36'105 4.6 250 / 151010.010.8 23.018.327.0
2018-Jun-20 11:00N 20°30' W 106°00'158 6.6 210 / 151011.0 25.017.022.0
2018-Jun-19 11:00N 23°00' W 106°54'8917.7 160 / 121010.0 26.023.123.0
2018-Jun-19 06:00N 22°54' W 108°30'149 8.3 200 / 101011.010.8 23.021.522.0
2018-Jun-18 12:00N 23°36' W 111°06'48420.2 330 / 181012.0 17.015.317.0
2018-Jun-17 12:00N 30°00' W 116°36'12120.2 300 / 141013.0 16.0 5.715.0
2018-Jun-17 06:00N 31°54' W 117°24'2128.2 1012.010.8 16.010.415.0
2018-Jun-17 05:15N 32°12' W 117°36'920.2
2018-Jun-17 04:49N 32°21' W 117°40'620.5
2018-Jun-17 04:30N 32°27' W 117°42'1020.2
2018-Jun-17 04:01N 32°36' W 117°46'1020.4
2018-Jun-17 03:30N 32°46' W 117°49'1020.6
2018-Jun-17 03:00N 32°56' W 117°53'1020.6
2018-Jun-17 02:31N 33°05' W 117°58'1020.7
2018-Jun-17 02:00N 33°14' W 118°03'1019.3
2018-Jun-17 01:30N 33°23' W 118°08'714.3
2018-Jun-17 01:00N 33°30' W 118°11'511.0
2018-Jun-17 00:30N 33°35' W 118°13'510.7
2018-Jun-17 00:00N 33°40' W 118°12'4 8.7
2018-Jun-16 23:30N 33°45' W 118°11'0 0.9
2018-Jun-16 22:58N 33°45' W 118°11'0 0.0
2018-Jun-16 22:25N 33°45' W 118°11'0 0.0
2018-Jun-16 21:58N 33°45' W 118°11'0 0.0
2018-Jun-16 21:28N 33°45' W 118°11'0 0.0
2018-Jun-16 21:00N 33°45' W 118°11'0 0.0
2018-Jun-16 20:30N 33°45' W 118°11'0 0.0
2018-Jun-16 20:00N 33°45' W 118°11'0 0.0
2018-Jun-16 19:30N 33°45' W 118°11'0 0.0
2018-Jun-16 19:00N 33°45' W 118°11'0 0.0
2018-Jun-16 18:29N 33°45' W 118°11'0 0.0
2018-Jun-16 17:59N 33°45' W 118°11'0 0.0
2018-Jun-16 17:29N 33°45' W 118°11'0 0.0
2018-Jun-16 16:59N 33°45' W 118°11'0 0.0
2018-Jun-16 16:25N 33°45' W 118°11'0 0.0
2018-Jun-16 15:58N 33°45' W 118°11'0 0.0
2018-Jun-16 15:28N 33°45' W 118°11'0 0.0
2018-Jun-16 14:58N 33°45' W 118°11'0 0.0
2018-Jun-16 14:28N 33°45' W 118°11'0 0.0
2018-Jun-16 14:00N 33°45' W 118°11'0 0.5
2018-Jun-16 13:30N 33°45' W 118°11'4 8.2
2018-Jun-16 13:00N 33°41' W 118°11'510.7
2018-Jun-16 12:30N 33°36' W 118°09'712.8
2018-Jun-16 12:00N 33°29' W 118°07'613.0
2018-Jun-16 11:30N 33°23' W 118°04'612.6
2018-Jun-16 11:00N 33°17' W 118°01'715.2
2018-Jun-16 10:30N 33°10' W 117°58'715.0
2018-Jun-16 10:00N 33°04' W 117°54'715.0
2018-Jun-16 09:31N 32°57' W 117°50'714.8
2018-Jun-16 09:01N 32°50' W 117°48'815.2
2018-Jun-16 08:31N 32°42' W 117°47'815.1
2018-Jun-16 08:00N 32°35' W 117°45'815.2
2018-Jun-16 07:30N 32°28' W 117°43'714.3
2018-Jun-16 07:01N 32°21' W 117°40'611.8
2018-Jun-16 06:29N 32°15' W 117°37'611.8
2018-Jun-16 06:00N 32°10' W 117°35'612.3
2018-Jun-16 05:30N 32°04' W 117°32'814.8
2018-Jun-16 04:56N 31°57' W 117°27'712.4
2018-Jun-16 04:21N 31°53' W 117°20'411.8
2018-Jun-16 04:00N 31°53' W 117°15'1411.4
2018-Jun-16 02:45N 31°53' W 116°58'7 0.5
2018-Jun-15 11:31N 31°54' W 117°06'717.4
2018-Jun-15 11:07N 31°54' W 117°15'112.2
2018-Jun-15 11:00N 31°54' W 117°16'912.2
2018-Jun-15 10:18N 31°55' W 117°26'311.9
2018-Jun-15 10:00N 31°55' W 117°30'612.0
2018-Jun-15 09:30N 31°55' W 117°38'611.9
2018-Jun-15 09:00N 31°55' W 117°45'611.3
2018-Jun-15 08:30N 31°56' W 117°51'510.9
2018-Jun-15 08:00N 31°56' W 117°57'610.1
2018-Jun-15 07:27N 32°01' W 118°01'511.3
2018-Jun-15 07:00N 32°06' W 117°59'611.3
2018-Jun-15 06:30N 32°11' W 117°57'611.5
2018-Jun-15 06:00N 32°16' W 117°55'611.7
2018-Jun-15 05:28N 32°22' W 117°52'710.8
2018-Jun-15 04:50N 32°24' W 117°44'410.9
2018-Jun-15 04:30N 32°25' W 117°40'610.9
2018-Jun-15 03:57N 32°26' W 117°33'910.8
2018-Jun-15 03:09N 32°31' W 117°24'211.2
2018-Jun-15 03:00N 32°32' W 117°23'611.0
2018-Jun-15 02:30N 32°35' W 117°17'5 9.1
2018-Jun-15 02:00N 32°38' W 117°13'5 9.7
2018-Jun-15 01:30N 32°43' W 117°13'2 1.6
2018-Jun-15 00:10N 32°43' W 117°10'0 0.0
2018-Jun-14 23:58N 32°43' W 117°10'0 0.0
2018-Jun-14 23:28N 32°43' W 117°10'0 0.0
2018-Jun-14 22:58N 32°43' W 117°10'0 0.0
2018-Jun-14 22:30N 32°43' W 117°10'0 0.0
2018-Jun-14 22:00N 32°43' W 117°10'0 0.0
2018-Jun-14 21:30N 32°43' W 117°10'0 0.0
2018-Jun-14 21:00N 32°43' W 117°10'0 0.0
2018-Jun-14 20:30N 32°43' W 117°10'0 0.0
2018-Jun-14 19:58N 32°43' W 117°10'0 0.0
2018-Jun-14 19:30N 32°43' W 117°10'0 0.0
2018-Jun-14 19:00N 32°43' W 117°10'0 0.0
2018-Jun-14 18:30N 32°43' W 117°10'0 0.0
2018-Jun-14 18:00N 32°43' W 117°10'0 0.0
2018-Jun-14 17:30N 32°43' W 117°10'0 0.0
2018-Jun-14 17:00N 32°43' W 117°10'0 0.0
2018-Jun-14 16:30N 32°43' W 117°10'0 0.0
2018-Jun-14 16:00N 32°43' W 117°10'0 0.0
2018-Jun-14 15:31N 32°43' W 117°10'0 0.0
2018-Jun-14 15:00N 32°43' W 117°10'0 0.0
2018-Jun-14 14:30N 32°43' W 117°10'0 0.0
2018-Jun-14 14:00N 32°43' W 117°10'0 0.0
2018-Jun-14 13:30N 32°43' W 117°10'0 0.0
2018-Jun-14 13:00N 32°43' W 117°10'1 2.3
2018-Jun-14 12:30N 32°43' W 117°12'4 8.5
2018-Jun-14 12:00N 32°39' W 117°13'5 9.3
2018-Jun-14 11:30N 32°35' W 117°17'611.7
2018-Jun-14 11:00N 32°32' W 117°23'714.9
2018-Jun-14 10:31N 32°28' W 117°30'815.1
2018-Jun-14 10:01N 32°24' W 117°37'714.8
2018-Jun-14 09:30N 32°18' W 117°43'815.7
2018-Jun-14 09:01N 32°12' W 117°48'816.0
2018-Jun-14 08:30N 32°05' W 117°54'816.0
2018-Jun-14 08:00N 31°59' W 117°60'815.5
2018-Jun-14 07:30N 31°52' W 118°03'815.5
2018-Jun-14 07:00N 31°44' W 118°04'1215.8
2018-Jun-14 06:15N 31°32' W 118°06'415.2
2018-Jun-14 06:00N 31°29' W 118°07'816.5
2018-Jun-14 05:30N 31°20' W 118°08'1216.8
2018-Jun-14 04:48N 31°09' W 118°10'516.5
2018-Jun-14 04:30N 31°04' W 118°11'816.5
2018-Jun-14 04:00N 30°56' W 118°12'1016.5
2018-Jun-14 03:25N 30°46' W 118°14'716.4
2018-Jun-14 03:00N 30°39' W 118°15'816.5
2018-Jun-14 02:30N 30°31' W 118°16'816.7
2018-Jun-14 02:00N 30°23' W 118°18'916.7
2018-Jun-14 01:29N 30°14' W 118°19'1916.0
2018-Jun-14 00:16N 29°58' W 118°08'519.4
2018-Jun-14 00:00N 29°55' W 118°02'1019.4
2018-Jun-13 23:30N 29°51' W 117°52'1219.1
2018-Jun-13 22:53N 29°45' W 117°40'719.3
2018-Jun-13 22:30N 29°42' W 117°33'1019.4
2018-Jun-13 21:59N 29°37' W 117°22'1019.6
2018-Jun-13 21:30N 29°33' W 117°13'1936.6
2018-Jun-13 21:00N 29°24' W 116°54'7102.8 300 / 141008.010.8 16.012.416.0
2018-Jun-13 20:55N 29°28' W 117°01'1319.4
2018-Jun-13 20:15N 29°22' W 116°48'3019.3
2018-Jun-13 18:43N 29°08' W 116°18'419.4
2018-Jun-13 18:30N 29°05' W 116°15'1119.9
2018-Jun-13 17:57N 28°54' W 116°11'1019.6
2018-Jun-13 17:26N 28°45' W 116°07'919.4
2018-Jun-13 16:57N 28°36' W 116°03'919.4
2018-Jun-13 16:30N 28°28' W 115°60'1019.5
2018-Jun-13 15:58N 28°18' W 115°56'1819.5
2018-Jun-13 15:01N 28°02' W 115°46'120.1
2018-Jun-13 15:00N 28°02' W 115°45'1019.9
2018-Jun-13 14:29N 27°53' W 115°38'2020.2
2018-Jun-13 13:31N 27°39' W 115°24'015.2
2018-Jun-13 13:29N 27°38' W 115°23'2919.4
2018-Jun-13 12:00N 27°18' W 115°00'1219.1 320 / 201008.0 16.014.316.0
2018-Jun-13 11:21N 27°07' W 114°54'1518.8
2018-Jun-13 10:33N 26°56' W 114°43'318.0
2018-Jun-13 10:25N 26°54' W 114°41'818.5
2018-Jun-13 09:57N 26°47' W 114°35'26118.7
2018-Jun-12 20:00N 23°42' W 111°12'121 5.1 270 / 131008.010.8 20.016.719.0
2018-Jun-11 20:00N 25°00' W 112°54'13817.4 310 / 151008.010.8 18.014.617.0
2018-Jun-11 12:02N 26°45' W 114°33'118.5
2018-Jun-11 12:00N 26°46' W 114°34'1217.6
2018-Jun-11 11:21N 26°55' W 114°42'617.5
2018-Jun-11 11:01N 26°59' W 114°46'  

Dump ship's entire track history